sensor_id;sensor_type;location;lat;lon;timestamp;pressure;altitude;pressure_sealevel;temperature;humidity
65758;BME280;52495;52.208;5.158;2023-05-19T00:02:21;102728.91;;;11.47;70.74
65758;BME280;52495;52.208;5.158;2023-05-19T00:04:52;102727.13;;;11.39;71.00
65758;BME280;52495;52.208;5.158;2023-05-19T00:07:20;102729.75;;;11.43;70.81
65758;BME280;52495;52.208;5.158;2023-05-19T00:09:52;102717.53;;;11.29;71.49
65758;BME280;52495;52.208;5.158;2023-05-19T00:12:19;102717.63;;;11.37;71.73
65758;BME280;52495;52.208;5.158;2023-05-19T00:14:46;102715.09;;;11.42;70.87
65758;BME280;52495;52.208;5.158;2023-05-19T00:17:13;102716.66;;;11.24;71.82
65758;BME280;52495;52.208;5.158;2023-05-19T00:19:41;102720.09;;;11.24;71.90
65758;BME280;52495;52.208;5.158;2023-05-19T00:22:10;102714.88;;;11.21;72.05
65758;BME280;52495;52.208;5.158;2023-05-19T00:24:37;102707.94;;;11.16;72.75
65758;BME280;52495;52.208;5.158;2023-05-19T00:27:04;102715.59;;;11.08;72.30
65758;BME280;52495;52.208;5.158;2023-05-19T00:29:31;102705.31;;;11.13;72.52
65758;BME280;52495;52.208;5.158;2023-05-19T00:31:58;102711.28;;;11.07;72.46
65758;BME280;52495;52.208;5.158;2023-05-19T00:34:24;102713.78;;;10.98;72.93
65758;BME280;52495;52.208;5.158;2023-05-19T00:36:51;102709.47;;;10.98;72.92
65758;BME280;52495;52.208;5.158;2023-05-19T00:39:19;102712.75;;;10.86;73.98
65758;BME280;52495;52.208;5.158;2023-05-19T00:41:46;102717.03;;;10.83;73.92
65758;BME280;52495;52.208;5.158;2023-05-19T00:44:13;102709.31;;;10.86;73.64
65758;BME280;52495;52.208;5.158;2023-05-19T00:46:39;102703.28;;;10.84;73.59
65758;BME280;52495;52.208;5.158;2023-05-19T00:49:06;102709.19;;;10.76;74.41
65758;BME280;52495;52.208;5.158;2023-05-19T00:51:33;102710.09;;;10.78;74.96
65758;BME280;52495;52.208;5.158;2023-05-19T00:54:01;102704.78;;;10.68;75.11
65758;BME280;52495;52.208;5.158;2023-05-19T00:56:30;102703.25;;;10.82;74.19
65758;BME280;52495;52.208;5.158;2023-05-19T00:58:59;102704.09;;;10.81;74.43
65758;BME280;52495;52.208;5.158;2023-05-19T01:01:26;102705.81;;;10.81;74.78
65758;BME280;52495;52.208;5.158;2023-05-19T01:03:53;102711.81;;;10.78;74.81
65758;BME280;52495;52.208;5.158;2023-05-19T01:06:23;102714.25;;;10.66;74.80
65758;BME280;52495;52.208;5.158;2023-05-19T01:08:53;102705.63;;;10.65;75.46
65758;BME280;52495;52.208;5.158;2023-05-19T01:11:19;102706.41;;;10.58;76.10
65758;BME280;52495;52.208;5.158;2023-05-19T01:13:48;102701.25;;;10.61;75.41
65758;BME280;52495;52.208;5.158;2023-05-19T01:16:21;102697.81;;;10.62;75.05
65758;BME280;52495;52.208;5.158;2023-05-19T01:18:55;102702.06;;;10.55;75.79
65758;BME280;52495;52.208;5.158;2023-05-19T01:25:03;102694.16;;;10.44;76.47
65758;BME280;52495;52.208;5.158;2023-05-19T01:27:48;102701.84;;;10.40;77.16
65758;BME280;52495;52.208;5.158;2023-05-19T01:30:24;102690.59;;;10.38;76.96
65758;BME280;52495;52.208;5.158;2023-05-19T01:32:54;102686.41;;;10.41;76.31
65758;BME280;52495;52.208;5.158;2023-05-19T01:35:23;102692.31;;;10.37;76.98
65758;BME280;52495;52.208;5.158;2023-05-19T01:37:51;102689.63;;;10.29;78.09
65758;BME280;52495;52.208;5.158;2023-05-19T01:40:21;102693.03;;;10.27;78.47
65758;BME280;52495;52.208;5.158;2023-05-19T01:42:50;102684.47;;;10.29;78.06
65758;BME280;52495;52.208;5.158;2023-05-19T01:45:19;102685.25;;;10.24;78.65
65758;BME280;52495;52.208;5.158;2023-05-19T01:47:53;102681.84;;;10.26;77.67
65758;BME280;52495;52.208;5.158;2023-05-19T01:50:19;102677.59;;;10.30;77.50
65758;BME280;52495;52.208;5.158;2023-05-19T01:52:48;102683.50;;;10.21;78.68
65758;BME280;52495;52.208;5.158;2023-05-19T01:55:15;102682.66;;;10.22;78.40
65758;BME280;52495;52.208;5.158;2023-05-19T01:57:53;102677.38;;;10.14;79.10
65758;BME280;52495;52.208;5.158;2023-05-19T02:00:28;102678.16;;;10.09;79.43
65758;BME280;52495;52.208;5.158;2023-05-19T02:03:08;102684.22;;;10.12;79.70
65758;BME280;52495;52.208;5.158;2023-05-19T02:05:44;102669.59;;;10.11;80.43
65758;BME280;52495;52.208;5.158;2023-05-19T02:08:23;102674.63;;;10.03;81.22
65758;BME280;52495;52.208;5.158;2023-05-19T02:10:55;102680.53;;;9.95;81.90
65758;BME280;52495;52.208;5.158;2023-05-19T02:13:27;102677.09;;;9.96;82.08
65758;BME280;52495;52.208;5.158;2023-05-19T02:15:59;102679.72;;;9.99;82.27
65758;BME280;52495;52.208;5.158;2023-05-19T02:18:27;102678.09;;;10.06;81.04
65758;BME280;52495;52.208;5.158;2023-05-19T02:20:54;102668.47;;;9.94;81.66
65758;BME280;52495;52.208;5.158;2023-05-19T02:23:23;102675.31;;;9.92;82.64
65758;BME280;52495;52.208;5.158;2023-05-19T02:25:49;102674.53;;;9.96;81.94
65758;BME280;52495;52.208;5.158;2023-05-19T02:28:16;102671.94;;;9.94;81.38
65758;BME280;52495;52.208;5.158;2023-05-19T02:30:43;102670.22;;;9.95;82.04
65758;BME280;52495;52.208;5.158;2023-05-19T02:33:11;102666.66;;;9.86;82.98
65758;BME280;52495;52.208;5.158;2023-05-19T02:35:38;102667.38;;;9.79;83.46
65758;BME280;52495;52.208;5.158;2023-05-19T02:38:06;102660.59;;;9.86;82.16
65758;BME280;52495;52.208;5.158;2023-05-19T02:40:32;102658.97;;;9.90;81.90
65758;BME280;52495;52.208;5.158;2023-05-19T02:42:59;102654.53;;;9.81;82.36
65758;BME280;52495;52.208;5.158;2023-05-19T02:45:27;102663.06;;;9.78;83.21
65758;BME280;52495;52.208;5.158;2023-05-19T02:47:54;102657.88;;;9.75;83.38
65758;BME280;52495;52.208;5.158;2023-05-19T02:50:22;102658.69;;;9.71;83.43
65758;BME280;52495;52.208;5.158;2023-05-19T02:52:49;102657.13;;;9.81;83.08
65758;BME280;52495;52.208;5.158;2023-05-19T02:55:17;102660.44;;;9.75;82.98
65758;BME280;52495;52.208;5.158;2023-05-19T02:57:43;102656.00;;;9.65;83.66
65758;BME280;52495;52.208;5.158;2023-05-19T03:00:11;102650.91;;;9.69;83.85
65758;BME280;52495;52.208;5.158;2023-05-19T03:02:38;102644.81;;;9.64;84.32
65758;BME280;52495;52.208;5.158;2023-05-19T03:05:06;102648.25;;;9.63;84.48
65758;BME280;52495;52.208;5.158;2023-05-19T03:07:36;102639.78;;;9.74;84.32
65758;BME280;52495;52.208;5.158;2023-05-19T03:10:03;102638.88;;;9.70;83.91
65758;BME280;52495;52.208;5.158;2023-05-19T03:12:31;102641.31;;;9.61;84.88
65758;BME280;52495;52.208;5.158;2023-05-19T03:14:58;102637.94;;;9.66;84.11
65758;BME280;52495;52.208;5.158;2023-05-19T03:17:24;102647.41;;;9.66;84.00
65758;BME280;52495;52.208;5.158;2023-05-19T03:19:52;102646.47;;;9.61;84.65
65758;BME280;52495;52.208;5.158;2023-05-19T03:22:18;102638.72;;;9.59;85.16
65758;BME280;52495;52.208;5.158;2023-05-19T03:24:47;102646.41;;;9.57;84.86
65758;BME280;52495;52.208;5.158;2023-05-19T03:27:16;102640.28;;;9.49;85.39
65758;BME280;52495;52.208;5.158;2023-05-19T03:29:43;102647.03;;;9.43;86.87
65758;BME280;52495;52.208;5.158;2023-05-19T03:32:09;102648.78;;;9.45;86.40
65758;BME280;52495;52.208;5.158;2023-05-19T03:34:36;102645.38;;;9.46;86.27
65758;BME280;52495;52.208;5.158;2023-05-19T03:37:03;102636.97;;;9.58;85.61
65758;BME280;52495;52.208;5.158;2023-05-19T03:39:30;102634.22;;;9.49;86.24
65758;BME280;52495;52.208;5.158;2023-05-19T03:41:58;102637.63;;;9.45;86.40
65758;BME280;52495;52.208;5.158;2023-05-19T03:44:25;102632.44;;;9.43;86.39
65758;BME280;52495;52.208;5.158;2023-05-19T03:46:52;102635.97;;;9.48;86.21
65758;BME280;52495;52.208;5.158;2023-05-19T03:49:48;102629.84;;;9.41;85.89
65758;BME280;52495;52.208;5.158;2023-05-19T03:52:34;102633.19;;;9.37;86.13
65758;BME280;52495;52.208;5.158;2023-05-19T03:55:11;102639.09;;;9.30;86.96
65758;BME280;52495;52.208;5.158;2023-05-19T03:57:40;102634.03;;;9.35;87.14
65758;BME280;52495;52.208;5.158;2023-05-19T04:00:09;102637.41;;;9.32;87.62
65758;BME280;52495;52.208;5.158;2023-05-19T04:02:37;102634.09;;;9.39;86.83
65758;BME280;52495;52.208;5.158;2023-05-19T04:05:06;102632.34;;;9.37;87.36
65758;BME280;52495;52.208;5.158;2023-05-19T04:07:33;102644.34;;;9.36;87.30
65758;BME280;52495;52.208;5.158;2023-05-19T04:10:02;102629.78;;;9.37;87.01
65758;BME280;52495;52.208;5.158;2023-05-19T04:12:29;102640.03;;;9.34;88.16
65758;BME280;52495;52.208;5.158;2023-05-19T04:14:57;102637.53;;;9.40;88.18
65758;BME280;52495;52.208;5.158;2023-05-19T04:17:24;102634.16;;;9.44;88.01
65758;BME280;52495;52.208;5.158;2023-05-19T04:19:53;102635.94;;;9.47;88.07
65758;BME280;52495;52.208;5.158;2023-05-19T04:22:20;102635.97;;;9.48;88.79
65758;BME280;52495;52.208;5.158;2023-05-19T04:24:47;102637.69;;;9.49;88.88
65758;BME280;52495;52.208;5.158;2023-05-19T04:27:15;102642.81;;;9.46;89.49
65758;BME280;52495;52.208;5.158;2023-05-19T04:29:42;102648.00;;;9.48;89.85
65758;BME280;52495;52.208;5.158;2023-05-19T04:32:11;102657.22;;;9.35;90.02
65758;BME280;52495;52.208;5.158;2023-05-19T04:34:42;102646.03;;;9.34;90.42
65758;BME280;52495;52.208;5.158;2023-05-19T04:37:13;102649.56;;;9.39;90.18
65758;BME280;52495;52.208;5.158;2023-05-19T04:39:41;102652.22;;;9.44;90.95
65758;BME280;52495;52.208;5.158;2023-05-19T04:42:11;102654.97;;;9.53;89.44
65758;BME280;52495;52.208;5.158;2023-05-19T04:44:38;102648.91;;;9.53;89.94
65758;BME280;52495;52.208;5.158;2023-05-19T04:47:06;102649.84;;;9.56;89.97
65758;BME280;52495;52.208;5.158;2023-05-19T04:49:34;102644.72;;;9.60;90.02
65758;BME280;52495;52.208;5.158;2023-05-19T04:52:05;102648.19;;;9.62;90.33
65758;BME280;52495;52.208;5.158;2023-05-19T04:54:35;102652.47;;;9.60;89.97
65758;BME280;52495;52.208;5.158;2023-05-19T04:57:03;102657.72;;;9.64;90.60
65758;BME280;52495;52.208;5.158;2023-05-19T04:59:33;102646.69;;;9.76;90.87
65758;BME280;52495;52.208;5.158;2023-05-19T05:02:00;102653.59;;;9.76;90.47
65758;BME280;52495;52.208;5.158;2023-05-19T05:04:29;102652.81;;;9.81;90.70
65758;BME280;52495;52.208;5.158;2023-05-19T05:06:57;102660.56;;;9.81;90.21
65758;BME280;52495;52.208;5.158;2023-05-19T05:09:24;102663.13;;;9.81;90.34
65758;BME280;52495;52.208;5.158;2023-05-19T05:11:52;102663.13;;;9.81;90.90
65758;BME280;52495;52.208;5.158;2023-05-19T05:14:20;102664.06;;;9.86;90.88
65758;BME280;52495;52.208;5.158;2023-05-19T05:16:47;102661.44;;;9.82;91.06
65758;BME280;52495;52.208;5.158;2023-05-19T05:19:19;102663.50;;;10.06;89.37
65758;BME280;52495;52.208;5.158;2023-05-19T05:21:48;102666.00;;;10.01;89.91
65758;BME280;52495;52.208;5.158;2023-05-19T05:24:17;102665.94;;;9.97;90.00
65758;BME280;52495;52.208;5.158;2023-05-19T05:26:49;102663.63;;;10.14;89.02
65758;BME280;52495;52.208;5.158;2023-05-19T05:29:16;102655.00;;;10.13;89.59
65758;BME280;52495;52.208;5.158;2023-05-19T05:31:43;102664.56;;;10.21;89.29
65758;BME280;52495;52.208;5.158;2023-05-19T05:34:10;102673.22;;;10.26;89.09
65758;BME280;52495;52.208;5.158;2023-05-19T05:36:36;102670.78;;;10.35;87.51
65758;BME280;52495;52.208;5.158;2023-05-19T05:39:03;102670.88;;;10.40;88.37
65758;BME280;52495;52.208;5.158;2023-05-19T05:41:32;102672.69;;;10.48;86.90
65758;BME280;52495;52.208;5.158;2023-05-19T05:44:03;102670.16;;;10.52;86.53
65758;BME280;52495;52.208;5.158;2023-05-19T05:46:31;102663.34;;;10.57;86.32
65758;BME280;52495;52.208;5.158;2023-05-19T05:48:58;102668.53;;;10.58;85.66
65758;BME280;52495;52.208;5.158;2023-05-19T05:51:26;102667.72;;;10.64;85.18
65758;BME280;52495;52.208;5.158;2023-05-19T05:53:54;102659.09;;;10.62;84.64
65758;BME280;52495;52.208;5.158;2023-05-19T05:56:28;102667.75;;;10.66;85.64
65758;BME280;52495;52.208;5.158;2023-05-19T05:58:59;102670.38;;;10.70;85.30
65758;BME280;52495;52.208;5.158;2023-05-19T06:01:26;102670.44;;;10.75;85.20
65758;BME280;52495;52.208;5.158;2023-05-19T06:03:54;102668.88;;;10.88;84.42
65758;BME280;52495;52.208;5.158;2023-05-19T06:06:22;102671.53;;;10.96;83.30
65758;BME280;52495;52.208;5.158;2023-05-19T06:08:51;102666.47;;;11.06;83.65
65758;BME280;52495;52.208;5.158;2023-05-19T06:11:19;102670.81;;;11.11;82.08
65758;BME280;52495;52.208;5.158;2023-05-19T06:13:46;102671.75;;;11.17;82.18
65758;BME280;52495;52.208;5.158;2023-05-19T06:16:23;102670.09;;;11.26;80.94
65758;BME280;52495;52.208;5.158;2023-05-19T06:18:52;102665.81;;;11.26;81.54
65758;BME280;52495;52.208;5.158;2023-05-19T06:21:19;102665.09;;;11.44;80.69
65758;BME280;52495;52.208;5.158;2023-05-19T06:23:47;102660.84;;;11.51;79.10
65758;BME280;52495;52.208;5.158;2023-05-19T06:26:14;102669.41;;;11.47;78.93
65758;BME280;52495;52.208;5.158;2023-05-19T06:28:41;102660.00;;;11.53;79.41
65758;BME280;52495;52.208;5.158;2023-05-19T06:31:07;102662.72;;;11.71;78.18
65758;BME280;52495;52.208;5.158;2023-05-19T06:33:47;102665.34;;;11.75;78.01
65758;BME280;52495;52.208;5.158;2023-05-19T06:36:14;102657.59;;;11.80;77.05
65758;BME280;52495;52.208;5.158;2023-05-19T06:38:43;102654.22;;;11.89;76.61
65758;BME280;52495;52.208;5.158;2023-05-19T06:41:11;102655.22;;;12.03;75.11
65758;BME280;52495;52.208;5.158;2023-05-19T06:43:38;102649.13;;;11.99;75.51
65758;BME280;52495;52.208;5.158;2023-05-19T06:46:05;102650.91;;;12.08;75.59
65758;BME280;52495;52.208;5.158;2023-05-19T06:48:32;102645.81;;;12.22;74.83
65758;BME280;52495;52.208;5.158;2023-05-19T06:51:00;102647.59;;;12.31;74.45
65758;BME280;52495;52.208;5.158;2023-05-19T06:53:27;102659.69;;;12.34;74.92
65758;BME280;52495;52.208;5.158;2023-05-19T06:55:54;102658.88;;;12.47;73.54
65758;BME280;52495;52.208;5.158;2023-05-19T06:58:22;102659.75;;;12.46;73.29
65758;BME280;52495;52.208;5.158;2023-05-19T07:00:49;102658.94;;;12.56;72.00
65758;BME280;52495;52.208;5.158;2023-05-19T07:03:16;102656.31;;;12.58;72.07
65758;BME280;52495;52.208;5.158;2023-05-19T07:05:43;102671.06;;;12.68;71.76
65758;BME280;52495;52.208;5.158;2023-05-19T07:08:11;102658.09;;;12.74;71.32
65758;BME280;52495;52.208;5.158;2023-05-19T07:10:38;102662.47;;;12.85;70.76
65758;BME280;52495;52.208;5.158;2023-05-19T07:13:09;102659.91;;;12.97;70.12
65758;BME280;52495;52.208;5.158;2023-05-19T07:15:36;102661.63;;;13.00;69.39
65758;BME280;52495;52.208;5.158;2023-05-19T07:18:03;102662.50;;;13.00;68.92
65758;BME280;52495;52.208;5.158;2023-05-19T07:20:30;102656.44;;;13.00;69.71
65758;BME280;52495;52.208;5.158;2023-05-19T07:22:57;102666.84;;;13.09;69.41
65758;BME280;52495;52.208;5.158;2023-05-19T07:25:25;102661.66;;;13.15;68.84
65758;BME280;52495;52.208;5.158;2023-05-19T07:27:54;102662.53;;;13.08;68.98
65758;BME280;52495;52.208;5.158;2023-05-19T07:30:21;102659.06;;;13.17;68.97
65758;BME280;52495;52.208;5.158;2023-05-19T07:32:48;102655.63;;;13.18;68.70
65758;BME280;52495;52.208;5.158;2023-05-19T07:35:15;102656.47;;;13.26;68.92
65758;BME280;52495;52.208;5.158;2023-05-19T07:37:41;102663.41;;;13.30;68.58
65758;BME280;52495;52.208;5.158;2023-05-19T07:40:08;102655.66;;;13.41;68.02
65758;BME280;52495;52.208;5.158;2023-05-19T07:42:36;102660.84;;;13.50;67.78
65758;BME280;52495;52.208;5.158;2023-05-19T07:45:04;102659.13;;;13.73;64.98
65758;BME280;52495;52.208;5.158;2023-05-19T07:47:31;102655.63;;;13.69;65.21
65758;BME280;52495;52.208;5.158;2023-05-19T07:49:58;102658.25;;;13.74;65.33
65758;BME280;52495;52.208;5.158;2023-05-19T07:52:25;102652.19;;;13.76;66.29
65758;BME280;52495;52.208;5.158;2023-05-19T07:54:51;102647.81;;;13.92;65.30
65758;BME280;52495;52.208;5.158;2023-05-19T07:57:18;102648.69;;;14.01;64.59
65758;BME280;52495;52.208;5.158;2023-05-19T07:59:46;102649.53;;;14.03;64.50
65758;BME280;52495;52.208;5.158;2023-05-19T08:02:13;102643.44;;;14.22;62.93
65758;BME280;52495;52.208;5.158;2023-05-19T08:04:40;102641.69;;;14.24;62.98
65758;BME280;52495;52.208;5.158;2023-05-19T08:07:07;102635.56;;;14.36;62.13
65758;BME280;52495;52.208;5.158;2023-05-19T08:09:33;102644.22;;;14.41;62.12
65758;BME280;52495;52.208;5.158;2023-05-19T08:12:01;102637.25;;;14.45;62.47
65758;BME280;52495;52.208;5.158;2023-05-19T08:14:29;102636.31;;;14.60;61.90
65758;BME280;52495;52.208;5.158;2023-05-19T08:16:59;102620.69;;;14.77;60.76
65758;BME280;52495;52.208;5.158;2023-05-19T08:19:25;102630.06;;;14.97;58.87
65758;BME280;52495;52.208;5.158;2023-05-19T08:21:52;102629.22;;;14.96;59.01
65758;BME280;52495;52.208;5.158;2023-05-19T08:24:20;102628.28;;;15.03;58.56
65758;BME280;52495;52.208;5.158;2023-05-19T08:26:46;102623.06;;;15.07;58.62
65758;BME280;52495;52.208;5.158;2023-05-19T08:29:13;102622.03;;;15.26;57.58
65758;BME280;52495;52.208;5.158;2023-05-19T08:31:40;102622.06;;;15.25;58.18
65758;BME280;52495;52.208;5.158;2023-05-19T08:34:08;102615.06;;;15.31;57.84
65758;BME280;52495;52.208;5.158;2023-05-19T08:36:35;102611.59;;;15.32;57.85
65758;BME280;52495;52.208;5.158;2023-05-19T08:39:01;102608.84;;;15.48;56.09
65758;BME280;52495;52.208;5.158;2023-05-19T08:41:28;102606.25;;;15.48;56.19
65758;BME280;52495;52.208;5.158;2023-05-19T08:43:55;102611.44;;;15.48;56.49
65758;BME280;52495;52.208;5.158;2023-05-19T08:46:23;102606.13;;;15.57;54.78
65758;BME280;52495;52.208;5.158;2023-05-19T08:48:53;102603.63;;;15.48;55.61
65758;BME280;52495;52.208;5.158;2023-05-19T08:51:32;102601.88;;;15.52;55.94
65758;BME280;52495;52.208;5.158;2023-05-19T08:54:08;102600.91;;;15.62;56.33
65758;BME280;52495;52.208;5.158;2023-05-19T08:56:38;102593.78;;;15.78;54.96
65758;BME280;52495;52.208;5.158;2023-05-19T08:59:05;102590.25;;;15.87;54.10
65758;BME280;52495;52.208;5.158;2023-05-19T09:01:32;102584.97;;;15.91;53.71
65758;BME280;52495;52.208;5.158;2023-05-19T09:03:59;102580.63;;;15.95;54.18
65758;BME280;52495;52.208;5.158;2023-05-19T09:06:28;102584.72;;;16.13;53.93
65758;BME280;52495;52.208;5.158;2023-05-19T09:08:57;102576.78;;;16.24;53.83
65758;BME280;52495;52.208;5.158;2023-05-19T09:11:23;102584.34;;;16.43;51.58
65758;BME280;52495;52.208;5.158;2023-05-19T09:13:51;102584.28;;;16.47;50.01
65758;BME280;52495;52.208;5.158;2023-05-19T09:16:18;102573.13;;;16.39;50.26
65758;BME280;52495;52.208;5.158;2023-05-19T09:18:53;102577.25;;;16.52;51.46
65758;BME280;52495;52.208;5.158;2023-05-19T09:21:26;102584.00;;;16.66;50.79
65758;BME280;52495;52.208;5.158;2023-05-19T09:23:56;102582.00;;;16.83;49.71
65758;BME280;52495;52.208;5.158;2023-05-19T09:26:23;102581.09;;;16.88;49.39
65758;BME280;52495;52.208;5.158;2023-05-19T09:28:50;102580.56;;;16.64;50.85
65758;BME280;52495;52.208;5.158;2023-05-19T09:31:17;102578.84;;;16.64;50.08
65758;BME280;52495;52.208;5.158;2023-05-19T09:33:44;102571.78;;;16.71;50.00
65758;BME280;52495;52.208;5.158;2023-05-19T09:36:10;102576.97;;;16.73;51.57
65758;BME280;52495;52.208;5.158;2023-05-19T09:38:38;102565.31;;;16.94;51.38
65758;BME280;52495;52.208;5.158;2023-05-19T09:41:07;102571.09;;;17.16;50.15
65758;BME280;52495;52.208;5.158;2023-05-19T09:43:34;102572.69;;;17.25;50.33
65758;BME280;52495;52.208;5.158;2023-05-19T09:46:03;102568.13;;;17.35;48.05
65758;BME280;52495;52.208;5.158;2023-05-19T09:48:30;102564.44;;;17.48;47.42
65758;BME280;52495;52.208;5.158;2023-05-19T09:50:57;102572.97;;;17.58;45.14
65758;BME280;52495;52.208;5.158;2023-05-19T09:53:25;102562.63;;;17.52;45.34
65758;BME280;52495;52.208;5.158;2023-05-19T09:55:55;102567.78;;;17.55;45.19
65758;BME280;52495;52.208;5.158;2023-05-19T09:58:25;102563.31;;;17.62;44.41
65758;BME280;52495;52.208;5.158;2023-05-19T10:00:52;102567.59;;;17.64;44.11
65758;BME280;52495;52.208;5.158;2023-05-19T10:03:20;102561.47;;;17.65;43.08
65758;BME280;52495;52.208;5.158;2023-05-19T10:05:48;102559.81;;;17.61;44.19
65758;BME280;52495;52.208;5.158;2023-05-19T10:08:16;102559.75;;;17.64;44.59
65758;BME280;52495;52.208;5.158;2023-05-19T10:10:44;102564.88;;;17.70;44.51
65758;BME280;52495;52.208;5.158;2023-05-19T10:13:12;102558.28;;;17.95;43.61
65758;BME280;52495;52.208;5.158;2023-05-19T10:15:40;102561.66;;;18.01;43.18
65758;BME280;52495;52.208;5.158;2023-05-19T10:18:08;102559.25;;;17.90;43.33
65758;BME280;52495;52.208;5.158;2023-05-19T10:20:35;102553.00;;;17.99;43.89
65758;BME280;52495;52.208;5.158;2023-05-19T10:23:02;102554.66;;;18.03;43.87
65758;BME280;52495;52.208;5.158;2023-05-19T10:25:29;102553.31;;;18.25;43.26
65758;BME280;52495;52.208;5.158;2023-05-19T10:28:00;102550.44;;;18.37;42.46
65758;BME280;52495;52.208;5.158;2023-05-19T10:30:36;102539.31;;;18.29;42.61
65758;BME280;52495;52.208;5.158;2023-05-19T10:33:08;102541.13;;;18.25;42.53
65758;BME280;52495;52.208;5.158;2023-05-19T10:36:04;102539.00;;;18.43;42.34
65758;BME280;52495;52.208;5.158;2023-05-19T10:38:40;102530.34;;;18.39;41.80
65758;BME280;52495;52.208;5.158;2023-05-19T10:41:11;102539.78;;;18.46;41.62
65758;BME280;52495;52.208;5.158;2023-05-19T10:43:48;102532.94;;;18.41;42.62
65758;BME280;52495;52.208;5.158;2023-05-19T10:46:23;102540.72;;;18.42;42.32
65758;BME280;52495;52.208;5.158;2023-05-19T10:48:53;102528.63;;;18.38;42.64
65758;BME280;52495;52.208;5.158;2023-05-19T10:51:20;102524.44;;;18.31;41.61
65758;BME280;52495;52.208;5.158;2023-05-19T10:53:46;102525.81;;;18.47;41.90
65758;BME280;52495;52.208;5.158;2023-05-19T10:56:27;102525.03;;;18.44;41.54
65758;BME280;52495;52.208;5.158;2023-05-19T10:59:00;102514.22;;;18.58;41.84
65758;BME280;52495;52.208;5.158;2023-05-19T11:01:31;102517.34;;;18.72;40.20
65758;BME280;52495;52.208;5.158;2023-05-19T11:04:05;102525.31;;;18.68;40.19
65758;BME280;52495;52.208;5.158;2023-05-19T11:06:34;102521.03;;;18.65;39.34
65758;BME280;52495;52.208;5.158;2023-05-19T11:09:10;102527.34;;;18.56;40.02
65758;BME280;52495;52.208;5.158;2023-05-19T11:11:47;102523.03;;;18.54;40.57
65758;BME280;52495;52.208;5.158;2023-05-19T11:14:15;102514.91;;;18.64;40.91
65758;BME280;52495;52.208;5.158;2023-05-19T11:16:46;102516.06;;;18.89;39.42
65758;BME280;52495;52.208;5.158;2023-05-19T11:19:18;102527.28;;;18.95;39.58
65758;BME280;52495;52.208;5.158;2023-05-19T11:21:49;102524.50;;;19.02;40.12
65758;BME280;52495;52.208;5.158;2023-05-19T11:24:32;102522.78;;;19.01;39.86
65758;BME280;52495;52.208;5.158;2023-05-19T11:27:16;102512.22;;;19.04;39.72
65758;BME280;52495;52.208;5.158;2023-05-19T11:29:43;102522.63;;;19.07;40.48
65758;BME280;52495;52.208;5.158;2023-05-19T11:32:11;102516.28;;;19.16;39.90
65758;BME280;52495;52.208;5.158;2023-05-19T11:34:40;102515.19;;;19.24;40.01
65758;BME280;52495;52.208;5.158;2023-05-19T11:37:07;102504.38;;;19.37;38.39
65758;BME280;52495;52.208;5.158;2023-05-19T11:39:34;102503.38;;;19.41;37.48
65758;BME280;52495;52.208;5.158;2023-05-19T11:42:01;102498.97;;;19.43;37.61
65758;BME280;52495;52.208;5.158;2023-05-19T11:44:27;102497.25;;;19.42;38.33
65758;BME280;52495;52.208;5.158;2023-05-19T11:46:54;102499.97;;;19.69;37.76
65758;BME280;52495;52.208;5.158;2023-05-19T11:49:21;102498.97;;;19.73;38.27
65758;BME280;52495;52.208;5.158;2023-05-19T11:51:49;102502.72;;;19.96;37.10
65758;BME280;52495;52.208;5.158;2023-05-19T11:54:16;102502.75;;;19.94;36.84
65758;BME280;52495;52.208;5.158;2023-05-19T11:56:43;102495.09;;;19.86;36.24
65758;BME280;52495;52.208;5.158;2023-05-19T11:59:10;102490.88;;;19.81;36.70
65758;BME280;52495;52.208;5.158;2023-05-19T12:01:37;102495.38;;;19.77;37.35
65758;BME280;52495;52.208;5.158;2023-05-19T12:04:07;102502.19;;;19.83;37.21
65758;BME280;52495;52.208;5.158;2023-05-19T12:06:34;102501.75;;;19.98;37.04
65758;BME280;52495;52.208;5.158;2023-05-19T12:09:04;102494.94;;;19.93;37.10
65758;BME280;52495;52.208;5.158;2023-05-19T12:11:30;102490.63;;;19.90;36.72
65758;BME280;52495;52.208;5.158;2023-05-19T12:13:57;102491.56;;;19.89;36.56
65758;BME280;52495;52.208;5.158;2023-05-19T12:16:31;102491.94;;;20.05;36.42
65758;BME280;52495;52.208;5.158;2023-05-19T12:18:58;102489.13;;;20.11;36.23
65758;BME280;52495;52.208;5.158;2023-05-19T12:21:25;102489.28;;;20.07;36.16
65758;BME280;52495;52.208;5.158;2023-05-19T12:23:52;102474.56;;;20.01;37.10
65758;BME280;52495;52.208;5.158;2023-05-19T12:26:21;102463.81;;;20.10;37.31
65758;BME280;52495;52.208;5.158;2023-05-19T12:28:48;102472.00;;;20.28;36.03
65758;BME280;52495;52.208;5.158;2023-05-19T12:31:17;102477.91;;;20.35;36.93
65758;BME280;52495;52.208;5.158;2023-05-19T12:33:44;102478.06;;;20.30;37.23
65758;BME280;52495;52.208;5.158;2023-05-19T12:36:16;102464.38;;;20.47;36.48
65758;BME280;52495;52.208;5.158;2023-05-19T12:38:43;102475.69;;;20.49;36.85
65758;BME280;52495;52.208;5.158;2023-05-19T12:41:10;102469.22;;;20.59;37.07
65758;BME280;52495;52.208;5.158;2023-05-19T12:43:39;102457.69;;;20.65;36.37
65758;BME280;52495;52.208;5.158;2023-05-19T12:46:09;102457.41;;;20.73;36.20
65758;BME280;52495;52.208;5.158;2023-05-19T12:48:39;102460.81;;;20.76;35.91
65758;BME280;52495;52.208;5.158;2023-05-19T12:51:06;102456.31;;;20.80;36.19
65758;BME280;52495;52.208;5.158;2023-05-19T12:53:35;102453.50;;;20.85;36.34
65758;BME280;52495;52.208;5.158;2023-05-19T12:56:10;102450.78;;;20.88;36.22
65758;BME280;52495;52.208;5.158;2023-05-19T12:58:39;102452.47;;;20.90;36.91
65758;BME280;52495;52.208;5.158;2023-05-19T13:01:06;102454.66;;;21.03;35.77
65758;BME280;52495;52.208;5.158;2023-05-19T13:03:38;102434.72;;;20.97;35.50
65758;BME280;52495;52.208;5.158;2023-05-19T13:06:06;102436.78;;;21.13;35.88